Time;durP1;ratioP1;P1;durP2;ratioP2;P2;SDS_P1;SDS_P2;PMS_P1;PMS_P2;Temp;Humidity;BMP_temperature;BMP_pressure;BME280_temperature;BME280_humidity;BME280_pressure;Samples;Min_cycle;Max_cycle;Signal;HPM_P1;HPM_P2
2023/07/17 00:00:49;;;;;;;8.18;4.50;;;;;;;;;;6282481;28;20048;-82
2023/07/17 00:03:51;;;;;;;9.52;4.38;;;;;;;;;;6258360;28;20055;-82
2023/07/17 00:06:53;;;;;;;10.45;4.25;;;;;;;;;;6253411;28;20486;-82
2023/07/17 00:09:54;;;;;;;7.35;4.68;;;;;;;;;;6262757;28;20461;-83
2023/07/17 00:12:56;;;;;;;9.65;4.85;;;;;;;;;;6285034;28;20056;-82
2023/07/17 00:15:58;;;;;;;10.45;4.45;;;;;;;;;;6285574;28;20065;-84
2023/07/17 00:19:00;;;;;;;9.98;4.60;;;;;;;;;;6251858;28;20052;-83
2023/07/17 00:22:02;;;;;;;10.98;4.82;;;;;;;;;;6287814;28;20415;-83
2023/07/17 00:25:04;;;;;;;8.93;4.60;;;;;;;;;;6284335;28;20037;-84
2023/07/17 00:28:05;;;;;;;7.40;4.40;;;;;;;;;;6272616;28;20041;-84
2023/07/17 00:31:07;;;;;;;7.55;4.63;;;;;;;;;;6257349;28;20494;-83
2023/07/17 00:34:09;;;;;;;9.65;5.00;;;;;;;;;;6270015;28;20075;-83
2023/07/17 00:37:11;;;;;;;9.52;4.43;;;;;;;;;;6254277;28;20047;-84
2023/07/17 00:40:13;;;;;;;9.40;4.97;;;;;;;;;;6287148;28;20049;-84
2023/07/17 00:43:15;;;;;;;9.38;4.97;;;;;;;;;;6291484;28;20055;-84
2023/07/17 00:46:18;;;;;;;7.85;4.43;;;;;;;;;;6264442;28;20425;-83
2023/07/17 00:49:22;;;;;;;7.95;4.32;;;;;;;;;;6304788;28;20040;-82
2023/07/17 00:52:24;;;;;;;9.57;5.00;;;;;;;;;;6264166;28;20048;-83
2023/07/17 00:55:26;;;;;;;7.00;4.07;;;;;;;;;;6244344;28;20049;-82
2023/07/17 00:58:28;;;;;;;7.32;4.60;;;;;;;;;;6262042;28;20518;-83
2023/07/17 01:01:31;;;;;;;9.40;4.25;;;;;;;;;;6272530;28;20044;-83
2023/07/17 01:04:33;;;;;;;7.68;4.63;;;;;;;;;;6256514;28;20045;-82
2023/07/17 01:07:37;;;;;;;9.10;4.70;;;;;;;;;;6256763;28;20514;-83
2023/07/17 01:10:39;;;;;;;9.43;5.28;;;;;;;;;;6278047;28;20044;-83
2023/07/17 01:13:50;;;;;;;8.75;4.53;;;;;;;;;;6278771;28;20044;-83
2023/07/17 01:16:52;;;;;;;8.32;4.75;;;;;;;;;;6262292;28;20040;-82
2023/07/17 01:19:53;;;;;;;10.13;4.88;;;;;;;;;;6277467;28;20047;-82
2023/07/17 01:23:02;;;;;;;8.25;4.22;;;;;;;;;;6264623;28;20040;-84
2023/07/17 01:26:16;;;;;;;8.05;4.45;;;;;;;;;;6267079;28;20521;-83
2023/07/17 01:29:18;;;;;;;7.38;4.35;;;;;;;;;;6286909;28;20055;-83
2023/07/17 01:32:20;;;;;;;10.32;4.75;;;;;;;;;;6279990;28;20048;-84
2023/07/17 01:35:22;;;;;;;10.03;4.67;;;;;;;;;;6243152;28;20052;-82
2023/07/17 01:38:24;;;;;;;12.32;4.93;;;;;;;;;;6261970;28;20044;-82
2023/07/17 01:41:27;;;;;;;8.45;4.82;;;;;;;;;;6267770;28;20044;-83
2023/07/17 01:44:31;;;;;;;8.43;4.70;;;;;;;;;;6281708;28;20047;-83
2023/07/17 01:47:33;;;;;;;9.55;5.20;;;;;;;;;;6256597;28;20041;-83
2023/07/17 01:50:35;;;;;;;8.40;4.50;;;;;;;;;;6259480;28;20051;-82
2023/07/17 01:53:37;;;;;;;9.48;4.90;;;;;;;;;;6263197;28;20070;-82
2023/07/17 01:56:39;;;;;;;11.57;5.05;;;;;;;;;;6264382;28;20047;-83
2023/07/17 01:59:41;;;;;;;9.13;5.47;;;;;;;;;;6262528;28;20040;-83
2023/07/17 02:02:43;;;;;;;7.55;4.60;;;;;;;;;;6258598;28;20407;-82
2023/07/17 02:05:44;;;;;;;7.47;4.75;;;;;;;;;;6275087;28;20041;-82
2023/07/17 02:08:46;;;;;;;9.43;4.95;;;;;;;;;;6259679;28;20434;-82
2023/07/17 02:11:48;;;;;;;8.57;4.65;;;;;;;;;;6268274;28;20040;-83
2023/07/17 02:14:51;;;;;;;8.00;4.55;;;;;;;;;;6280421;28;20036;-82
2023/07/17 02:17:53;;;;;;;7.55;4.13;;;;;;;;;;6269964;28;20655;-82
2023/07/17 02:20:57;;;;;;;9.35;4.85;;;;;;;;;;6270288;28;20037;-82
2023/07/17 02:23:59;;;;;;;10.15;5.13;;;;;;;;;;6280238;28;20044;-83
2023/07/17 02:27:02;;;;;;;8.45;4.60;;;;;;;;;;6268421;28;20186;-82
2023/07/17 02:30:05;;;;;;;8.48;5.10;;;;;;;;;;6277311;28;20048;-82
2023/07/17 02:33:07;;;;;;;10.98;5.03;;;;;;;;;;6257115;28;20037;-82
2023/07/17 02:36:08;;;;;;;9.13;5.00;;;;;;;;;;6265220;28;20429;-82
2023/07/17 02:39:10;;;;;;;7.18;4.70;;;;;;;;;;6280493;28;20040;-82
2023/07/17 02:42:14;;;;;;;9.68;5.57;;;;;;;;;;6281283;28;20721;-82
2023/07/17 02:45:15;;;;;;;10.35;5.60;;;;;;;;;;6266765;28;20048;-83
2023/07/17 02:48:17;;;;;;;12.77;5.00;;;;;;;;;;6276323;28;20048;-81
2023/07/17 02:51:19;;;;;;;9.00;4.72;;;;;;;;;;6272719;28;20399;-81
2023/07/17 02:54:22;;;;;;;10.43;5.20;;;;;;;;;;6279063;28;20054;-83
2023/07/17 02:57:24;;;;;;;9.70;4.77;;;;;;;;;;6254265;28;20490;-83
2023/07/17 03:00:26;;;;;;;8.10;4.85;;;;;;;;;;6257058;28;20041;-81
2023/07/17 03:03:28;;;;;;;10.13;4.90;;;;;;;;;;6247735;28;20758;-84
2023/07/17 03:06:29;;;;;;;10.35;5.15;;;;;;;;;;6259507;28;20564;-84
2023/07/17 03:09:31;;;;;;;7.45;4.95;;;;;;;;;;6229053;28;20108;-82
2023/07/17 03:12:34;;;;;;;9.55;5.00;;;;;;;;;;6281495;28;20075;-81
2023/07/17 03:15:37;;;;;;;7.78;4.45;;;;;;;;;;6263608;28;20047;-80
2023/07/17 03:18:39;;;;;;;9.93;5.38;;;;;;;;;;6263723;28;20048;-81
2023/07/17 03:21:41;;;;;;;12.48;4.80;;;;;;;;;;6275157;28;20063;-80
2023/07/17 03:24:42;;;;;;;9.93;4.72;;;;;;;;;;6261306;28;20052;-81
2023/07/17 03:27:44;;;;;;;12.05;5.75;;;;;;;;;;6267536;28;20044;-81
2023/07/17 03:30:46;;;;;;;11.60;5.43;;;;;;;;;;6261771;28;20041;-83
2023/07/17 03:33:48;;;;;;;11.90;5.78;;;;;;;;;;6254364;28;20124;-80
2023/07/17 03:36:50;;;;;;;11.52;5.18;;;;;;;;;;6258205;28;20163;-79
2023/07/17 03:39:51;;;;;;;10.50;5.35;;;;;;;;;;6261374;28;20059;-81
2023/07/17 03:42:53;;;;;;;10.82;5.53;;;;;;;;;;6258795;28;20068;-80
2023/07/17 03:45:55;;;;;;;9.32;5.10;;;;;;;;;;6271067;28;20170;-81
2023/07/17 03:48:57;;;;;;;8.90;4.97;;;;;;;;;;6253143;28;20360;-80
2023/07/17 03:51:59;;;;;;;8.98;4.75;;;;;;;;;;6277259;28;21534;-81
2023/07/17 03:55:01;;;;;;;10.93;4.77;;;;;;;;;;6237995;28;20591;-81
2023/07/17 03:58:06;;;;;;;9.10;4.97;;;;;;;;;;6277649;28;20051;-81
2023/07/17 04:01:08;;;;;;;9.35;5.05;;;;;;;;;;6257329;28;20037;-82
2023/07/17 04:04:17;;;;;;;9.55;4.72;;;;;;;;;;6272118;28;20047;-82
2023/07/17 04:07:19;;;;;;;9.70;5.40;;;;;;;;;;6261050;28;20043;-81
2023/07/17 04:10:21;;;;;;;7.78;4.47;;;;;;;;;;6280567;28;20056;-82
2023/07/17 04:13:23;;;;;;;8.98;4.88;;;;;;;;;;6249705;28;20063;-82
2023/07/17 04:16:26;;;;;;;8.35;5.00;;;;;;;;;;6261978;28;20056;-82
2023/07/17 04:19:30;;;;;;;8.88;4.75;;;;;;;;;;6252061;28;20409;-80
2023/07/17 04:22:32;;;;;;;9.90;4.95;;;;;;;;;;6266742;28;20039;-82
2023/07/17 04:25:39;;;;;;;12.57;5.50;;;;;;;;;;6282242;28;20052;-79
2023/07/17 04:28:41;;;;;;;10.60;4.63;;;;;;;;;;6274873;28;20067;-80
2023/07/17 04:31:43;;;;;;;12.45;5.25;;;;;;;;;;6269593;28;20131;-79
2023/07/17 04:34:45;;;;;;;9.18;5.20;;;;;;;;;;6261364;28;20127;-80
2023/07/17 04:37:46;;;;;;;9.63;5.13;;;;;;;;;;6276193;28;20041;-82
2023/07/17 04:40:48;;;;;;;12.63;5.30;;;;;;;;;;6244223;28;20052;-80
2023/07/17 04:43:51;;;;;;;8.65;4.95;;;;;;;;;;6260382;28;20747;-81
2023/07/17 04:46:52;;;;;;;9.73;5.35;;;;;;;;;;6244116;28;20406;-81
2023/07/17 04:49:55;;;;;;;12.50;5.25;;;;;;;;;;6260444;28;20095;-81
2023/07/17 04:52:59;;;;;;;9.82;5.15;;;;;;;;;;6263977;28;20048;-81
2023/07/17 04:56:03;;;;;;;11.02;6.03;;;;;;;;;;6246952;28;20044;-81
2023/07/17 04:59:05;;;;;;;9.50;5.13;;;;;;;;;;6260893;28;20055;-81
2023/07/17 05:02:08;;;;;;;9.05;5.22;;;;;;;;;;6259750;28;20037;-80
2023/07/17 05:05:10;;;;;;;13.20;4.65;;;;;;;;;;6258802;28;20043;-80
2023/07/17 05:08:12;;;;;;;10.35;5.20;;;;;;;;;;6267507;28;20052;-81
2023/07/17 05:11:15;;;;;;;8.27;5.30;;;;;;;;;;6267799;28;20040;-80
2023/07/17 05:14:21;;;;;;;11.02;5.70;;;;;;;;;;6273288;28;20071;-81
2023/07/17 05:17:24;;;;;;;10.50;5.80;;;;;;;;;;6262748;28;20040;-79
2023/07/17 05:20:26;;;;;;;10.50;5.28;;;;;;;;;;6260207;28;20118;-80
2023/07/17 05:23:28;;;;;;;12.20;4.78;;;;;;;;;;6287317;28;20044;-80
2023/07/17 05:26:29;;;;;;;13.65;5.28;;;;;;;;;;6267557;28;20517;-79
2023/07/17 05:29:34;;;;;;;14.38;5.50;;;;;;;;;;6260634;28;20465;-81
2023/07/17 05:32:35;;;;;;;16.10;6.22;;;;;;;;;;6279909;28;20041;-80
2023/07/17 05:35:37;;;;;;;10.45;5.40;;;;;;;;;;6268643;28;20040;-79
2023/07/17 05:38:39;;;;;;;10.20;5.07;;;;;;;;;;6249183;28;20082;-80
2023/07/17 05:41:42;;;;;;;10.48;6.10;;;;;;;;;;6265490;28;20051;-80
2023/07/17 05:44:44;;;;;;;12.95;5.53;;;;;;;;;;6264001;28;20521;-79
2023/07/17 05:47:46;;;;;;;12.13;5.63;;;;;;;;;;6273384;28;20071;-79
2023/07/17 05:50:48;;;;;;;10.68;5.47;;;;;;;;;;6259380;28;20044;-80
2023/07/17 05:53:50;;;;;;;8.75;5.28;;;;;;;;;;6267560;28;20045;-80
2023/07/17 05:56:52;;;;;;;14.63;5.85;;;;;;;;;;6260552;28;20044;-80
2023/07/17 05:59:55;;;;;;;13.93;5.40;;;;;;;;;;6254906;28;20203;-80
2023/07/17 06:02:57;;;;;;;14.75;5.45;;;;;;;;;;6255821;28;20044;-80
2023/07/17 06:05:58;;;;;;;12.63;5.72;;;;;;;;;;6260862;28;20596;-79
2023/07/17 06:09:04;;;;;;;9.45;5.07;;;;;;;;;;6278923;28;20318;-79
2023/07/17 06:12:06;;;;;;;12.48;5.18;;;;;;;;;;6266345;28;20129;-80
2023/07/17 06:15:17;;;;;;;11.45;5.55;;;;;;;;;;6264697;28;20086;-79
2023/07/17 06:18:19;;;;;;;10.02;5.32;;;;;;;;;;6263122;28;21302;-79
2023/07/17 06:21:21;;;;;;;10.35;5.05;;;;;;;;;;6284626;28;20055;-79
2023/07/17 06:24:23;;;;;;;13.20;6.10;;;;;;;;;;6280129;28;20486;-79
2023/07/17 06:27:25;;;;;;;11.77;5.55;;;;;;;;;;6283761;28;20052;-79
2023/07/17 06:30:26;;;;;;;12.18;5.35;;;;;;;;;;6278950;28;20040;-80
2023/07/17 06:33:28;;;;;;;13.57;5.07;;;;;;;;;;6257587;28;20041;-79
2023/07/17 06:36:30;;;;;;;14.95;5.40;;;;;;;;;;6256982;28;20044;-79
2023/07/17 06:39:32;;;;;;;11.45;4.65;;;;;;;;;;6265162;28;20036;-80
2023/07/17 06:42:34;;;;;;;14.70;4.78;;;;;;;;;;6256748;28;20808;-81
2023/07/17 06:45:36;;;;;;;10.27;4.32;;;;;;;;;;6260408;28;20041;-79
2023/07/17 06:48:38;;;;;;;9.98;4.05;;;;;;;;;;6260406;28;20051;-80
2023/07/17 06:51:39;;;;;;;8.57;4.47;;;;;;;;;;6280967;28;20052;-80
2023/07/17 06:54:41;;;;;;;9.57;4.63;;;;;;;;;;6258897;28;20037;-80
2023/07/17 06:58:03;;;;;;;7.78;4.22;;;;;;;;;;6277963;28;20056;-80
2023/07/17 07:01:05;;;;;;;9.93;4.03;;;;;;;;;;6256692;28;20045;-79
2023/07/17 07:04:07;;;;;;;5.68;3.50;;;;;;;;;;6259379;28;20650;-79
2023/07/17 07:07:09;;;;;;;6.40;3.88;;;;;;;;;;6280758;28;20056;-80
2023/07/17 07:10:10;;;;;;;6.80;3.75;;;;;;;;;;6281664;28;20052;-79
2023/07/17 07:13:12;;;;;;;7.35;3.38;;;;;;;;;;6283381;28;20055;-79
2023/07/17 07:16:14;;;;;;;4.57;2.80;;;;;;;;;;6276045;28;20052;-79
2023/07/17 07:19:16;;;;;;;4.57;2.80;;;;;;;;;;6276921;28;20094;-79
2023/07/17 07:22:17;;;;;;;7.18;3.08;;;;;;;;;;6266246;28;20055;-79
2023/07/17 07:25:19;;;;;;;17.60;4.03;;;;;;;;;;6279915;28;20059;-79
2023/07/17 07:28:21;;;;;;;15.57;3.60;;;;;;;;;;6257080;28;20044;-79
2023/07/17 07:31:23;;;;;;;9.75;3.50;;;;;;;;;;6257515;28;20044;-78
2023/07/17 07:34:24;;;;;;;7.63;2.80;;;;;;;;;;6275474;28;20048;-79
2023/07/17 07:37:26;;;;;;;6.63;3.00;;;;;;;;;;6259816;28;20040;-81
2023/07/17 07:40:28;;;;;;;7.83;2.80;;;;;;;;;;6261723;28;20052;-81
2023/07/17 07:43:30;;;;;;;8.35;2.85;;;;;;;;;;6281951;28;20037;-78
2023/07/17 07:46:32;;;;;;;5.93;2.63;;;;;;;;;;6277966;28;20049;-79
2023/07/17 07:49:34;;;;;;;5.93;1.95;;;;;;;;;;6256486;28;20040;-80
2023/07/17 07:52:36;;;;;;;4.53;1.88;;;;;;;;;;6279568;28;20040;-79
2023/07/17 07:55:38;;;;;;;6.50;2.00;;;;;;;;;;6265713;28;20475;-81
2023/07/17 07:58:39;;;;;;;2.93;1.70;;;;;;;;;;6272360;28;20055;-79
2023/07/17 08:01:41;;;;;;;5.22;2.10;;;;;;;;;;6254043;28;20040;-81
2023/07/17 08:04:43;;;;;;;5.18;1.70;;;;;;;;;;6262795;28;20074;-82
2023/07/17 08:07:45;;;;;;;5.97;2.10;;;;;;;;;;6276721;28;20039;-82
2023/07/17 08:10:50;;;;;;;4.07;1.77;;;;;;;;;;6243983;28;20507;-83
2023/07/17 08:13:52;;;;;;;5.55;2.35;;;;;;;;;;6279688;28;20178;-80
2023/07/17 08:16:55;;;;;;;5.72;2.13;;;;;;;;;;6264667;28;20044;-82
2023/07/17 08:19:56;;;;;;;3.70;1.88;;;;;;;;;;6266351;28;20044;-81
2023/07/17 08:22:58;;;;;;;4.07;1.73;;;;;;;;;;6264492;28;20044;-82
2023/07/17 08:26:00;;;;;;;2.83;1.90;;;;;;;;;;6245159;28;20036;-80
2023/07/17 08:29:03;;;;;;;3.43;2.07;;;;;;;;;;6269081;28;20053;-78
2023/07/17 08:32:05;;;;;;;4.40;1.83;;;;;;;;;;6268384;28;20049;-78
2023/07/17 08:35:07;;;;;;;3.47;1.75;;;;;;;;;;6274616;28;20128;-78
2023/07/17 08:38:09;;;;;;;3.50;1.80;;;;;;;;;;6276304;28;20084;-79
2023/07/17 08:41:11;;;;;;;3.95;1.65;;;;;;;;;;6268395;28;20106;-80
2023/07/17 08:44:15;;;;;;;6.03;2.00;;;;;;;;;;6272806;28;20048;-78
2023/07/17 08:47:18;;;;;;;4.68;1.92;;;;;;;;;;6253515;28;20053;-79
2023/07/17 08:50:21;;;;;;;2.78;1.90;;;;;;;;;;6259291;28;20048;-77
2023/07/17 08:53:25;;;;;;;3.95;2.10;;;;;;;;;;6275327;28;20067;-79
2023/07/17 08:56:27;;;;;;;2.70;1.88;;;;;;;;;;6270748;28;20472;-79
2023/07/17 08:59:30;;;;;;;3.67;1.95;;;;;;;;;;6270378;28;20048;-81
2023/07/17 09:02:33;;;;;;;3.03;1.70;;;;;;;;;;6275754;28;20044;-80
2023/07/17 09:05:35;;;;;;;2.90;1.83;;;;;;;;;;6260991;28;20068;-80
2023/07/17 09:08:37;;;;;;;4.18;2.22;;;;;;;;;;6277996;28;20053;-81
2023/07/17 09:11:39;;;;;;;5.13;2.20;;;;;;;;;;6282822;28;20045;-81
2023/07/17 09:14:41;;;;;;;3.70;1.80;;;;;;;;;;6261003;28;20055;-80
2023/07/17 09:17:44;;;;;;;3.85;2.10;;;;;;;;;;6286945;28;20360;-80
2023/07/17 09:21:00;;;;;;;3.10;2.13;;;;;;;;;;6272482;28;20052;-80
2023/07/17 09:24:04;;;;;;;3.67;2.00;;;;;;;;;;6279980;28;20037;-81
2023/07/17 09:27:06;;;;;;;5.15;2.00;;;;;;;;;;6282612;28;20041;-81
2023/07/17 09:30:11;;;;;;;3.85;2.20;;;;;;;;;;6269553;28;20036;-79
2023/07/17 09:33:12;;;;;;;3.97;2.00;;;;;;;;;;6277125;28;20527;-81
2023/07/17 09:36:14;;;;;;;4.25;2.05;;;;;;;;;;6283713;28;20052;-80
2023/07/17 09:39:16;;;;;;;3.43;2.00;;;;;;;;;;6269386;28;20345;-81
2023/07/17 09:42:24;;;;;;;5.07;2.07;;;;;;;;;;6281322;28;20056;-81
2023/07/17 09:45:27;;;;;;;5.70;2.10;;;;;;;;;;6272641;28;20469;-80
2023/07/17 09:48:30;;;;;;;4.40;1.77;;;;;;;;;;6269412;28;20048;-82
2023/07/17 09:51:32;;;;;;;3.88;1.60;;;;;;;;;;6248873;28;20140;-79
2023/07/17 09:54:38;;;;;;;5.05;1.85;;;;;;;;;;6265448;28;20039;-83
2023/07/17 09:57:42;;;;;;;4.28;2.17;;;;;;;;;;6251696;28;20040;-81
2023/07/17 10:00:48;;;;;;;3.33;1.50;;;;;;;;;;6265786;28;20050;-81
2023/07/17 10:03:50;;;;;;;2.65;1.60;;;;;;;;;;6281562;28;20422;-84
2023/07/17 10:06:55;;;;;;;4.43;1.55;;;;;;;;;;6284119;28;20521;-82
2023/07/17 10:09:57;;;;;;;2.15;1.45;;;;;;;;;;6286997;28;20569;-80
2023/07/17 10:12:59;;;;;;;5.53;1.52;;;;;;;;;;6279715;28;20041;-80
2023/07/17 10:16:02;;;;;;;7.90;1.98;;;;;;;;;;6279973;28;20502;-81
2023/07/17 10:19:08;;;;;;;3.60;1.73;;;;;;;;;;6268096;28;20340;-81
2023/07/17 10:22:14;;;;;;;5.78;2.25;;;;;;;;;;6287138;28;20041;-82
2023/07/17 10:25:19;;;;;;;5.05;2.00;;;;;;;;;;6280610;28;20497;-82
2023/07/17 10:28:34;;;;;;;4.22;2.10;;;;;;;;;;6257382;28;20043;-84
2023/07/17 10:31:48;;;;;;;4.13;2.28;;;;;;;;;;6260179;28;20798;-83
2023/07/17 10:34:52;;;;;;;4.72;1.77;;;;;;;;;;6281190;28;20048;-83
2023/07/17 10:38:08;;;;;;;4.97;1.85;;;;;;;;;;6263690;28;20056;-79
2023/07/17 10:41:13;;;;;;;4.20;1.80;;;;;;;;;;6276390;28;20040;-81
2023/07/17 10:44:19;;;;;;;2.70;1.70;;;;;;;;;;6258783;28;20052;-80
2023/07/17 10:47:21;;;;;;;3.95;1.92;;;;;;;;;;6277727;28;20049;-80
2023/07/17 10:50:23;;;;;;;5.75;1.88;;;;;;;;;;6279311;28;20044;-82
2023/07/17 10:53:26;;;;;;;3.43;1.70;;;;;;;;;;6260842;28;20048;-82
2023/07/17 10:56:31;;;;;;;2.00;1.75;;;;;;;;;;6251579;28;20041;-83
2023/07/17 10:59:32;;;;;;;5.53;2.00;;;;;;;;;;6274579;28;20052;-82
2023/07/17 11:02:34;;;;;;;3.20;1.90;;;;;;;;;;6263331;28;20094;-82
2023/07/17 11:05:39;;;;;;;2.97;1.60;;;;;;;;;;6299613;28;20056;-80
2023/07/17 11:08:51;;;;;;;2.47;1.60;;;;;;;;;;6306253;28;20044;-80
2023/07/17 11:11:52;;;;;;;4.38;1.95;;;;;;;;;;6257901;28;20048;-83
2023/07/17 11:14:54;;;;;;;3.33;1.57;;;;;;;;;;6286236;28;20044;-84
2023/07/17 11:17:57;;;;;;;3.90;1.90;;;;;;;;;;6297310;28;20596;-82
2023/07/17 11:20:59;;;;;;;4.65;1.80;;;;;;;;;;6275783;28;20443;-83
2023/07/17 11:24:06;;;;;;;5.25;1.75;;;;;;;;;;6271014;28;20067;-83
2023/07/17 11:27:08;;;;;;;4.07;1.70;;;;;;;;;;6282383;28;20063;-81
2023/07/17 11:30:15;;;;;;;3.90;2.20;;;;;;;;;;6284438;28;20066;-84
2023/07/17 11:33:17;;;;;;;2.05;1.48;;;;;;;;;;6268378;28;20053;-81
2023/07/17 11:36:19;;;;;;;4.00;1.70;;;;;;;;;;6270213;28;20044;-80
2023/07/17 11:39:22;;;;;;;5.90;2.70;;;;;;;;;;6267723;28;20048;-82
2023/07/17 11:42:24;;;;;;;3.25;2.05;;;;;;;;;;6279385;28;20063;-82
2023/07/17 11:45:27;;;;;;;4.40;1.93;;;;;;;;;;6266544;28;20436;-80
2023/07/17 11:48:31;;;;;;;3.38;1.88;;;;;;;;;;6266074;28;20506;-82
2023/07/17 11:51:32;;;;;;;4.50;1.83;;;;;;;;;;6283883;28;20043;-83
2023/07/17 11:54:37;;;;;;;7.10;3.80;;;;;;;;;;6288247;28;20048;-82
2023/07/17 11:57:39;;;;;;;6.78;3.60;;;;;;;;;;6283139;28;20040;-81
2023/07/17 12:00:47;;;;;;;9.52;5.78;;;;;;;;;;6284598;28;20048;-81
2023/07/17 12:03:48;;;;;;;9.80;5.93;;;;;;;;;;6256567;28;20049;-83
2023/07/17 12:06:53;;;;;;;3.73;2.10;;;;;;;;;;6270241;28;20058;-82
2023/07/17 12:09:55;;;;;;;5.00;2.92;;;;;;;;;;6255451;28;20431;-82
2023/07/17 12:12:57;;;;;;;3.78;2.33;;;;;;;;;;6285425;28;20045;-83
2023/07/17 12:15:59;;;;;;;;;;;;;;;;;;6285710;28;20665;-82
2023/07/17 12:19:01;;;;;;;4.47;1.92;;;;;;;;;;6288456;28;19921;-83
2023/07/17 12:22:03;;;;;;;1.80;1.30;;;;;;;;;;6284913;28;20067;-80
2023/07/17 12:25:09;;;;;;;3.05;1.73;;;;;;;;;;6259326;28;20041;-81
2023/07/17 12:28:10;;;;;;;3.13;1.75;;;;;;;;;;6272961;28;20064;-81
2023/07/17 12:31:12;;;;;;;3.47;2.37;;;;;;;;;;6279050;28;20052;-81
2023/07/17 12:34:14;;;;;;;4.47;2.40;;;;;;;;;;6281128;28;20127;-82
2023/07/17 12:37:15;;;;;;;2.17;1.80;;;;;;;;;;6256320;28;20106;-83
2023/07/17 12:40:18;;;;;;;3.83;2.37;;;;;;;;;;6285465;28;20063;-83
2023/07/17 12:43:19;;;;;;;2.88;1.98;;;;;;;;;;6285319;28;20399;-82
2023/07/17 12:46:21;;;;;;;2.93;1.63;;;;;;;;;;6284828;28;20052;-82
2023/07/17 12:49:23;;;;;;;4.30;1.90;;;;;;;;;;6276231;28;20509;-82
2023/07/17 12:52:24;;;;;;;2.93;1.70;;;;;;;;;;6290022;28;20037;-82
2023/07/17 12:55:26;;;;;;;3.47;2.10;;;;;;;;;;6271653;28;20072;-80
2023/07/17 12:58:28;;;;;;;2.60;1.60;;;;;;;;;;6288200;28;20067;-83
2023/07/17 13:01:30;;;;;;;3.17;1.87;;;;;;;;;;6289914;28;20450;-81
2023/07/17 13:04:31;;;;;;;2.97;1.52;;;;;;;;;;6292755;28;20037;-83
2023/07/17 13:07:33;;;;;;;2.00;1.40;;;;;;;;;;6276318;28;20040;-82
2023/07/17 13:10:35;;;;;;;4.23;1.73;;;;;;;;;;6288453;28;20051;-82
2023/07/17 13:13:37;;;;;;;2.65;1.50;;;;;;;;;;6266752;28;20052;-83
2023/07/17 13:16:38;;;;;;;2.80;1.40;;;;;;;;;;6251755;28;20071;-81
2023/07/17 13:19:40;;;;;;;2.83;1.50;;;;;;;;;;6280273;28;20060;-82
2023/07/17 13:22:42;;;;;;;4.20;1.70;;;;;;;;;;6279092;28;20810;-81
2023/07/17 13:25:45;;;;;;;3.03;1.70;;;;;;;;;;6257878;28;20052;-82
2023/07/17 13:28:46;;;;;;;3.83;1.73;;;;;;;;;;6241293;28;20044;-82
2023/07/17 13:31:48;;;;;;;2.15;1.60;;;;;;;;;;6269767;28;20514;-82
2023/07/17 13:34:50;;;;;;;3.40;1.65;;;;;;;;;;6283408;28;20044;-82
2023/07/17 13:37:51;;;;;;;3.13;1.55;;;;;;;;;;6275471;28;20056;-83
2023/07/17 13:40:53;;;;;;;2.25;1.20;;;;;;;;;;6285715;28;20060;-81
2023/07/17 13:43:55;;;;;;;2.95;1.45;;;;;;;;;;6278559;28;20059;-82
2023/07/17 13:46:56;;;;;;;3.20;1.55;;;;;;;;;;6284501;28;20508;-82
2023/07/17 13:49:58;;;;;;;2.95;1.70;;;;;;;;;;6261112;28;20071;-81
2023/07/17 13:53:00;;;;;;;4.30;1.63;;;;;;;;;;6286511;28;20131;-82
2023/07/17 13:56:02;;;;;;;2.60;1.70;;;;;;;;;;6281551;28;21217;-80
2023/07/17 13:59:07;;;;;;;3.70;1.77;;;;;;;;;;6273927;28;20044;-81
2023/07/17 14:02:09;;;;;;;2.53;1.50;;;;;;;;;;6285496;28;20064;-81
2023/07/17 14:05:10;;;;;;;4.00;1.48;;;;;;;;;;6279777;28;20465;-82
2023/07/17 14:08:12;;;;;;;3.05;1.40;;;;;;;;;;6267109;28;20779;-80
2023/07/17 14:11:14;;;;;;;5.43;1.50;;;;;;;;;;6281304;28;20049;-82
2023/07/17 14:14:16;;;;;;;4.65;1.77;;;;;;;;;;6259040;28;20130;-81
2023/07/17 14:17:17;;;;;;;2.70;1.60;;;;;;;;;;6274621;28;20138;-81
2023/07/17 14:20:19;;;;;;;5.93;1.80;;;;;;;;;;6280104;28;20045;-80
2023/07/17 14:23:21;;;;;;;2.67;1.70;;;;;;;;;;6283272;28;20671;-80
2023/07/17 14:26:23;;;;;;;2.88;1.50;;;;;;;;;;6259366;28;20423;-79
2023/07/17 14:29:24;;;;;;;3.03;1.60;;;;;;;;;;6280639;28;20049;-78
2023/07/17 14:32:26;;;;;;;3.57;1.60;;;;;;;;;;6260005;28;21011;-79
2023/07/17 14:35:28;;;;;;;2.53;1.57;;;;;;;;;;6279542;28;20052;-79
2023/07/17 14:38:32;;;;;;;3.50;1.30;;;;;;;;;;6271530;28;20391;-81
2023/07/17 14:41:36;;;;;;;5.38;1.85;;;;;;;;;;6268114;28;20127;-81
2023/07/17 14:44:38;;;;;;;3.53;1.80;;;;;;;;;;6256699;28;20037;-82
2023/07/17 14:47:39;;;;;;;3.33;1.70;;;;;;;;;;6277527;28;20056;-81
2023/07/17 14:50:41;;;;;;;3.70;1.40;;;;;;;;;;6263806;28;20048;-81
2023/07/17 14:53:43;;;;;;;5.40;1.77;;;;;;;;;;6268559;28;20045;-80
2023/07/17 14:56:45;;;;;;;;;;;;;;;;;;6262128;28;20037;-81
2023/07/17 14:59:47;;;;;;;4.03;1.70;;;;;;;;;;6274864;28;19924;-81
2023/07/17 15:02:49;;;;;;;2.30;1.60;;;;;;;;;;6276194;28;20108;-81
2023/07/17 15:05:51;;;;;;;3.53;1.40;;;;;;;;;;6264228;28;20943;-82
2023/07/17 15:08:52;;;;;;;1.90;1.57;;;;;;;;;;6260837;28;20044;-81
2023/07/17 15:11:54;;;;;;;4.15;1.75;;;;;;;;;;6272753;28;20346;-80
2023/07/17 15:14:56;;;;;;;3.90;1.70;;;;;;;;;;6266896;28;20094;-80
2023/07/17 15:17:57;;;;;;;2.47;1.70;;;;;;;;;;6255658;28;20133;-81
2023/07/17 15:20:59;;;;;;;4.27;1.97;;;;;;;;;;6286660;28;20059;-80
2023/07/17 15:24:01;;;;;;;3.60;2.00;;;;;;;;;;6277064;28;20044;-80
2023/07/17 15:27:03;;;;;;;4.07;1.87;;;;;;;;;;6278912;28;20055;-78
2023/07/17 15:30:05;;;;;;;4.78;1.67;;;;;;;;;;6281459;28;20082;-77
2023/07/17 15:33:07;;;;;;;3.92;1.95;;;;;;;;;;6279705;28;20048;-77
2023/07/17 15:36:08;;;;;;;3.40;1.70;;;;;;;;;;6281392;28;20078;-79
2023/07/17 15:39:10;;;;;;;2.60;1.77;;;;;;;;;;6275061;28;20453;-79
2023/07/17 15:42:12;;;;;;;5.57;2.08;;;;;;;;;;6268005;28;20040;-79
2023/07/17 15:45:21;;;;;;;4.03;2.10;;;;;;;;;;6252215;28;20056;-78
2023/07/17 15:48:23;;;;;;;3.47;2.05;;;;;;;;;;6276927;28;20047;-81
2023/07/17 15:51:25;;;;;;;3.27;1.80;;;;;;;;;;6264451;28;20137;-81
2023/07/17 15:54:26;;;;;;;3.42;1.88;;;;;;;;;;6274800;28;20072;-80
2023/07/17 15:57:28;;;;;;;3.75;1.95;;;;;;;;;;6274968;28;20122;-81
2023/07/17 16:00:30;;;;;;;2.80;1.83;;;;;;;;;;6265596;28;20051;-80
2023/07/17 16:03:32;;;;;;;3.55;2.05;;;;;;;;;;6279777;28;20565;-82
2023/07/17 16:06:33;;;;;;;3.93;1.80;;;;;;;;;;6269547;28;20047;-79
2023/07/17 16:09:35;;;;;;;2.87;1.90;;;;;;;;;;6272643;28;20095;-80
2023/07/17 16:12:37;;;;;;;3.20;2.03;;;;;;;;;;6253069;28;20440;-78
2023/07/17 16:15:38;;;;;;;3.40;1.65;;;;;;;;;;6277933;28;20195;-82
2023/07/17 16:18:40;;;;;;;3.20;1.70;;;;;;;;;;6273988;28;20340;-80
2023/07/17 16:21:42;;;;;;;4.70;2.08;;;;;;;;;;6276275;28;20048;-80
2023/07/17 16:24:43;;;;;;;3.92;1.80;;;;;;;;;;6250114;28;20469;-80
2023/07/17 16:27:45;;;;;;;3.53;2.07;;;;;;;;;;6270399;28;20044;-80
2023/07/17 16:30:47;;;;;;;3.25;1.60;;;;;;;;;;6256809;28;20098;-81
2023/07/17 16:33:49;;;;;;;4.97;2.10;;;;;;;;;;6255874;28;20101;-82
2023/07/17 16:36:50;;;;;;;3.00;1.60;;;;;;;;;;6255367;28;20048;-82
2023/07/17 16:39:52;;;;;;;3.13;1.42;;;;;;;;;;6267796;28;20088;-81
2023/07/17 16:42:54;;;;;;;3.67;1.83;;;;;;;;;;6254134;28;20070;-78
2023/07/17 16:45:55;;;;;;;3.60;1.75;;;;;;;;;;6274449;28;20056;-80
2023/07/17 16:48:57;;;;;;;3.85;1.65;;;;;;;;;;6273234;28;20395;-81
2023/07/17 16:51:58;;;;;;;3.00;1.73;;;;;;;;;;6278658;28;20247;-79
2023/07/17 16:55:00;;;;;;;3.43;2.00;;;;;;;;;;6280801;28;20036;-80
2023/07/17 16:58:03;;;;;;;4.67;2.03;;;;;;;;;;6279453;28;20048;-81
2023/07/17 17:01:06;;;;;;;2.85;1.70;;;;;;;;;;6281239;28;20072;-82
2023/07/17 17:04:08;;;;;;;3.67;1.60;;;;;;;;;;6273788;28;20044;-80
2023/07/17 17:07:10;;;;;;;2.75;1.73;;;;;;;;;;6287391;28;20052;-81
2023/07/17 17:10:11;;;;;;;3.23;1.67;;;;;;;;;;6241801;28;20395;-79
2023/07/17 17:13:13;;;;;;;3.05;1.48;;;;;;;;;;6238995;28;20055;-81
2023/07/17 17:16:14;;;;;;;3.45;1.70;;;;;;;;;;6263129;28;20040;-82
2023/07/17 17:19:16;;;;;;;2.63;1.40;;;;;;;;;;6282709;28;20535;-81
2023/07/17 17:22:18;;;;;;;5.18;2.20;;;;;;;;;;6253642;28;21087;-81
2023/07/17 17:25:20;;;;;;;2.60;1.48;;;;;;;;;;6270682;28;20127;-81
2023/07/17 17:28:22;;;;;;;2.47;1.60;;;;;;;;;;6276613;28;20094;-81
2023/07/17 17:31:27;;;;;;;4.00;1.40;;;;;;;;;;6279267;28;20518;-83
2023/07/17 17:34:29;;;;;;;2.05;1.35;;;;;;;;;;6281371;28;20193;-82
2023/07/17 17:37:31;;;;;;;4.23;1.90;;;;;;;;;;6266097;28;20044;-81
2023/07/17 17:40:32;;;;;;;4.72;1.55;;;;;;;;;;6266565;28;20529;-80
2023/07/17 17:43:34;;;;;;;4.03;2.03;;;;;;;;;;6284387;28;20045;-80
2023/07/17 17:46:36;;;;;;;6.13;2.47;;;;;;;;;;6284240;28;20107;-81
2023/07/17 17:49:37;;;;;;;4.33;2.37;;;;;;;;;;6272843;28;20040;-79
2023/07/17 17:52:39;;;;;;;3.90;2.45;;;;;;;;;;6299242;28;20071;-78
2023/07/17 17:55:41;;;;;;;5.93;2.70;;;;;;;;;;6268952;28;20078;-80
2023/07/17 17:58:42;;;;;;;5.75;2.50;;;;;;;;;;6278332;28;20099;-79
2023/07/17 18:01:44;;;;;;;3.40;2.30;;;;;;;;;;6263414;28;20055;-79
2023/07/17 18:04:46;;;;;;;6.68;2.42;;;;;;;;;;6247932;28;20120;-78
2023/07/17 18:07:48;;;;;;;4.87;2.40;;;;;;;;;;6271728;28;20473;-79
2023/07/17 18:10:50;;;;;;;6.05;2.50;;;;;;;;;;6254228;28;20068;-79